Time;durP1;ratioP1;P1;durP2;ratioP2;P2;SDS_P1;SDS_P2;PMS_P1;PMS_P2;Temp;Humidity;BMP_temperature;BMP_pressure;BME280_temperature;BME280_humidity;BME280_pressure;Samples;Min_cycle;Max_cycle;Signal;HPM_P1;HPM_P2
2022/12/26 00:01:51;;;;;;;4.35;2.88;;;11.70;99.90;;;;;;4141967;28;20430;-69
2022/12/26 00:03:52;;;;;;;4.03;2.55;;;11.70;99.90;;;;;;4144371;28;20029;-69
2022/12/26 00:05:53;;;;;;;2.90;2.17;;;11.70;99.90;;;;;;4144018;28;20108;-69
2022/12/26 00:07:53;;;;;;;7.10;2.90;;;11.70;99.90;;;;;;4144826;28;20026;-69
2022/12/26 00:09:54;;;;;;;3.08;2.35;;;11.70;99.90;;;;;;4140643;28;20037;-69
2022/12/26 00:11:54;;;;;;;3.03;2.28;;;11.60;99.90;;;;;;4140241;28;20116;-69
2022/12/26 00:14:10;;;;;;;3.13;2.22;;;11.60;99.90;;;;;;4144089;28;20037;-69
2022/12/26 00:16:16;;;;;;;2.78;2.30;;;11.60;99.90;;;;;;4142130;28;20584;-69
2022/12/26 00:18:17;;;;;;;2.65;2.22;;;11.60;99.90;;;;;;4143912;28;20077;-69
2022/12/26 00:20:17;;;;;;;4.97;2.08;;;11.70;99.90;;;;;;4142693;28;21259;-69
2022/12/26 00:22:18;;;;;;;3.58;2.22;;;11.70;99.90;;;;;;4143665;28;20488;-69
2022/12/26 00:24:18;;;;;;;2.78;2.25;;;11.60;99.90;;;;;;4139571;28;20037;-69
2022/12/26 00:26:21;;;;;;;2.72;1.83;;;11.60;99.90;;;;;;4142821;28;20388;-69
2022/12/26 00:28:22;;;;;;;2.10;1.70;;;11.70;99.90;;;;;;4145857;28;20492;-69
2022/12/26 00:30:24;;;;;;;3.10;2.28;;;11.70;99.90;;;;;;4143385;28;20073;-69
2022/12/26 00:32:24;;;;;;;2.20;1.80;;;11.70;99.90;;;;;;4142798;28;20027;-69
2022/12/26 00:34:25;;;;;;;2.65;2.25;;;11.70;99.90;;;;;;4143698;28;20099;-69
2022/12/26 00:36:29;;;;;;;2.72;2.30;;;11.70;99.90;;;;;;4143288;28;20037;-69
2022/12/26 00:38:30;;;;;;;3.22;2.13;;;11.70;99.90;;;;;;4147969;28;20034;-69
2022/12/26 00:40:31;;;;;;;5.00;2.40;;;11.70;99.90;;;;;;4147704;28;20034;-69
2022/12/26 00:42:31;;;;;;;3.97;2.60;;;11.70;99.90;;;;;;4146540;28;20488;-69
2022/12/26 00:44:32;;;;;;;4.50;2.45;;;11.60;99.90;;;;;;4147299;28;20045;-69
2022/12/26 00:46:32;;;;;;;3.28;2.05;;;11.70;99.90;;;;;;4146015;28;20077;-69
2022/12/26 00:48:33;;;;;;;2.97;2.15;;;11.70;99.90;;;;;;4147013;28;20034;-69
2022/12/26 00:50:34;;;;;;;2.42;1.98;;;11.70;99.90;;;;;;4145535;28;20041;-69
2022/12/26 00:52:34;;;;;;;3.53;2.70;;;11.70;99.90;;;;;;4147074;28;20034;-69
2022/12/26 00:54:35;;;;;;;3.22;2.58;;;11.70;99.90;;;;;;4146929;28;20030;-69
2022/12/26 00:56:36;;;;;;;5.38;2.38;;;11.70;99.90;;;;;;4146681;28;20034;-68
2022/12/26 00:58:36;;;;;;;3.28;2.78;;;11.60;99.90;;;;;;4146923;28;20117;-69
2022/12/26 01:00:37;;;;;;;5.20;2.60;;;11.60;99.90;;;;;;4144948;28;20064;-69
2022/12/26 01:02:38;;;;;;;3.40;2.70;;;11.60;99.90;;;;;;4144783;28;20038;-69
2022/12/26 01:04:38;;;;;;;3.90;2.72;;;11.60;99.90;;;;;;4147868;28;20029;-69
2022/12/26 01:06:39;;;;;;;3.35;2.70;;;11.60;99.90;;;;;;4146284;28;20172;-69
2022/12/26 01:08:40;;;;;;;3.15;2.58;;;11.60;99.90;;;;;;4148287;28;20030;-69
2022/12/26 01:10:42;;;;;;;3.08;2.70;;;11.60;99.90;;;;;;4145513;28;20036;-69
2022/12/26 01:12:42;;;;;;;4.47;3.13;;;11.50;99.90;;;;;;4146154;28;20497;-69
2022/12/26 01:14:43;;;;;;;3.35;2.70;;;11.60;99.90;;;;;;4145819;28;20069;-69
2022/12/26 01:16:45;;;;;;;5.07;2.95;;;11.60;99.90;;;;;;4142843;28;20077;-69
2022/12/26 01:18:46;;;;;;;3.70;2.80;;;11.60;99.90;;;;;;4146524;28;20488;-69
2022/12/26 01:20:47;;;;;;;3.05;2.30;;;11.60;99.90;;;;;;4148783;28;20276;-70
2022/12/26 01:22:48;;;;;;;3.47;2.22;;;11.50;99.90;;;;;;4145059;28;20421;-69
2022/12/26 01:24:48;;;;;;;2.17;1.80;;;11.50;99.90;;;;;;4145535;28;20044;-69
2022/12/26 01:26:49;;;;;;;3.03;1.75;;;11.50;99.90;;;;;;4141318;28;20034;-69
2022/12/26 01:28:51;;;;;;;2.10;1.70;;;11.50;99.90;;;;;;4147554;28;20042;-69
2022/12/26 01:30:51;;;;;;;2.20;1.98;;;11.50;99.90;;;;;;4143181;28;20033;-69
2022/12/26 01:32:52;;;;;;;1.50;1.40;;;11.40;99.90;;;;;;4145570;28;20037;-69
2022/12/26 01:34:54;;;;;;;1.55;1.35;;;11.50;99.90;;;;;;4147364;28;20034;-69
2022/12/26 01:36:55;;;;;;;1.80;1.48;;;11.50;99.90;;;;;;4147081;28;20062;-69
2022/12/26 01:38:55;;;;;;;1.83;1.25;;;11.50;99.90;;;;;;4149753;28;20026;-69
2022/12/26 01:43:52;;;;;;;1.50;1.20;;;11.40;99.90;;;;;;4110056;28;20493;-69
2022/12/26 01:45:52;;;;;;;3.40;1.20;;;11.40;99.90;;;;;;4131634;28;20038;-69
2022/12/26 01:48:20;;;;;;;1.15;1.00;;;11.40;99.90;;;;;;4141856;28;20034;-69
2022/12/26 01:50:29;;;;;;;1.33;1.23;;;11.40;99.90;;;;;;4139072;28;20495;-69
2022/12/26 01:52:36;;;;;;;1.60;1.23;;;11.40;99.90;;;;;;4138522;28;20038;-70
2022/12/26 01:54:39;;;;;;;0.90;0.88;;;11.40;99.90;;;;;;4143861;28;20037;-70
2022/12/26 01:56:43;;;;;;;2.20;0.93;;;11.40;99.90;;;;;;4143991;28;20034;-69
2022/12/26 01:59:14;;;;;;;2.38;1.05;;;11.40;99.90;;;;;;4145388;28;20040;-69
2022/12/26 02:01:16;;;;;;;2.92;1.13;;;11.40;99.90;;;;;;4135015;28;20031;-70
2022/12/26 02:05:37;;;;;;;1.92;1.42;;;11.40;99.90;;;;;;4144797;28;20028;-70
2022/12/26 02:07:42;;;;;;;2.17;1.25;;;11.40;99.90;;;;;;4141997;28;20034;-69
2022/12/26 02:09:43;;;;;;;6.53;1.45;;;11.30;99.90;;;;;;4144606;28;20285;-69
2022/12/26 02:11:48;;;;;;;1.85;1.30;;;11.30;99.90;;;;;;4139571;28;20049;-69
2022/12/26 02:13:49;;;;;;;1.25;1.15;;;11.30;99.90;;;;;;4142390;28;20065;-69
2022/12/26 02:15:50;;;;;;;3.03;1.23;;;11.30;99.90;;;;;;4137777;28;20092;-69
2022/12/26 02:17:51;;;;;;;1.75;1.40;;;11.30;99.90;;;;;;4142741;28;20033;-69
2022/12/26 02:20:15;;;;;;;1.08;0.98;;;11.30;99.90;;;;;;4137077;28;20053;-69
2022/12/26 02:22:48;;;;;;;1.35;1.17;;;11.30;99.90;;;;;;4141725;28;20046;-69
2022/12/26 02:25:41;;;;;;;1.83;1.10;;;11.30;99.90;;;;;;4119849;28;20045;-69
2022/12/26 02:28:23;;;;;;;2.30;1.40;;;11.30;99.90;;;;;;4124321;28;20117;-69
2022/12/26 02:30:23;;;;;;;1.58;1.02;;;11.40;99.90;;;;;;4139531;28;20226;-69
2022/12/26 02:32:54;;;;;;;1.95;1.67;;;11.30;99.90;;;;;;4144521;28;20034;-69
2022/12/26 02:35:19;;;;;;;2.53;1.65;;;11.30;99.90;;;;;;4140501;28;20107;-69
2022/12/26 02:37:43;;;;;;;2.17;1.77;;;11.30;99.90;;;;;;4137407;28;20208;-69
2022/12/26 02:39:43;;;;;;;;;;;11.30;99.90;;;;;;4143065;28;20030;-69
2022/12/26 02:41:53;;;;;;;3.25;1.83;;;11.30;99.90;;;;;;4141701;28;19969;-69
2022/12/26 02:43:56;;;;;;;2.50;1.90;;;11.20;99.90;;;;;;4141085;28;20034;-69
2022/12/26 02:48:49;;;;;;;2.40;2.03;;;11.20;99.90;;;;;;4143896;28;20463;-69
2022/12/26 03:15:17;;;;;;;4.43;2.80;;;11.10;99.90;;;;;;4137623;28;20046;-70
2022/12/26 03:17:38;;;;;;;2.50;2.30;;;11.00;99.90;;;;;;4144056;28;20570;-69
2022/12/26 03:19:57;;;;;;;2.90;2.30;;;11.00;99.90;;;;;;4142042;28;20477;-69
2022/12/26 03:21:59;;;;;;;2.55;2.10;;;11.10;99.90;;;;;;4139176;28;20121;-69
2022/12/26 03:24:00;;;;;;;3.95;2.00;;;11.10;99.90;;;;;;4142521;28;20068;-69
2022/12/26 03:28:27;;;;;;;3.08;2.40;;;11.10;99.90;;;;;;4142475;28;20064;-69
2022/12/26 03:32:47;;;;;;;3.08;2.63;;;11.10;99.90;;;;;;4136579;28;21885;-69
2022/12/26 03:34:48;;;;;;;2.53;2.28;;;11.00;99.90;;;;;;4139807;28;20397;-68
2022/12/26 03:37:23;;;;;;;4.22;3.00;;;11.00;99.90;;;;;;4133307;28;20056;-69
2022/12/26 04:20:51;;;;;;;4.30;2.90;;;10.80;99.90;;;;;;4145669;28;20719;-69
2022/12/26 04:44:37;;;;;;;3.80;2.90;;;10.70;99.90;;;;;;4140905;28;20026;-69
2022/12/26 04:46:42;;;;;;;3.70;3.00;;;10.70;99.90;;;;;;4138310;28;20058;-69
2022/12/26 04:51:05;;;;;;;3.47;2.97;;;10.70;99.90;;;;;;4143212;28;20038;-69
2022/12/26 04:53:05;;;;;;;4.03;3.20;;;10.70;99.90;;;;;;4146928;28;20060;-69
2022/12/26 04:55:06;;;;;;;4.93;3.63;;;10.60;99.90;;;;;;4141930;28;20038;-71
2022/12/26 04:57:07;;;;;;;3.15;2.85;;;10.60;99.90;;;;;;4144785;28;20038;-69
2022/12/26 04:59:08;;;;;;;6.05;3.65;;;10.60;99.90;;;;;;4146610;28;20060;-69
2022/12/26 05:10:43;;;;;;;4.45;3.80;;;10.70;99.90;;;;;;4139049;28;20552;-69
2022/12/26 05:12:43;;;;;;;5.13;4.20;;;10.60;99.90;;;;;;4143165;28;20119;-68
2022/12/26 05:14:44;;;;;;;4.35;3.80;;;10.60;99.90;;;;;;4143842;28;20046;-69
2022/12/26 05:28:40;;;;;;;5.15;4.10;;;10.60;99.90;;;;;;4146119;28;20105;-68
2022/12/26 05:30:41;;;;;;;5.05;4.05;;;10.60;99.90;;;;;;4141683;28;20037;-70
2022/12/26 05:35:01;;;;;;;6.78;4.10;;;10.60;99.90;;;;;;4147915;28;20033;-70
2022/12/26 05:37:01;;;;;;;5.03;4.30;;;10.60;99.90;;;;;;4147852;28;20076;-70
2022/12/26 05:39:03;;;;;;;6.97;4.20;;;10.60;99.90;;;;;;4147527;28;20453;-69
2022/12/26 05:41:04;;;;;;;6.40;4.20;;;10.60;99.90;;;;;;4140010;28;20125;-70
2022/12/26 05:43:04;;;;;;;5.40;4.15;;;10.60;99.90;;;;;;4146381;28;20414;-69
2022/12/26 05:45:05;;;;;;;7.70;4.88;;;10.60;99.90;;;;;;4143595;28;20049;-69
2022/12/26 05:47:06;;;;;;;5.15;4.20;;;10.50;99.90;;;;;;4142583;28;20030;-70
2022/12/26 05:49:08;;;;;;;4.30;3.60;;;10.60;99.90;;;;;;4146081;28;20061;-70
2022/12/26 05:51:08;;;;;;;4.45;3.60;;;10.50;99.90;;;;;;4142017;28;20034;-69
2022/12/26 05:53:09;;;;;;;4.72;3.50;;;10.60;99.90;;;;;;4146203;28;20164;-69
2022/12/26 05:55:10;;;;;;;5.53;3.63;;;10.60;99.90;;;;;;4146257;28;20042;-70
2022/12/26 05:57:10;;;;;;;4.90;3.65;;;10.60;99.90;;;;;;4150739;28;20036;-70
2022/12/26 05:59:11;;;;;;;5.68;4.28;;;10.60;99.90;;;;;;4146347;28;20050;-69
2022/12/26 06:01:15;;;;;;;4.72;3.38;;;10.50;99.90;;;;;;4140665;28;20034;-70
2022/12/26 06:03:15;;;;;;;4.72;3.53;;;10.60;99.90;;;;;;4139648;28;20483;-70
2022/12/26 06:05:16;;;;;;;4.72;3.15;;;10.50;99.90;;;;;;4146994;28;20034;-70
2022/12/26 06:07:17;;;;;;;3.65;2.78;;;10.50;99.90;;;;;;4142725;28;20495;-69
2022/12/26 06:09:17;;;;;;;5.70;2.95;;;10.50;99.90;;;;;;4144529;28;20488;-69
2022/12/26 06:11:18;;;;;;;3.83;3.10;;;10.50;99.90;;;;;;4144065;28;20038;-70
2022/12/26 06:13:19;;;;;;;4.25;3.40;;;10.50;99.90;;;;;;4143799;28;20501;-69
2022/12/26 06:15:21;;;;;;;4.07;3.13;;;10.50;99.90;;;;;;4143413;28;20037;-70
2022/12/26 06:17:22;;;;;;;4.32;3.03;;;10.50;99.90;;;;;;4147270;28;20056;-69
2022/12/26 06:19:22;;;;;;;4.90;2.97;;;10.50;99.90;;;;;;4144804;28;20026;-70
2022/12/26 06:21:23;;;;;;;3.83;2.80;;;10.50;99.90;;;;;;4146128;28;20739;-69
2022/12/26 06:23:24;;;;;;;4.28;3.10;;;10.50;99.90;;;;;;4144710;28;20134;-69
2022/12/26 06:25:25;;;;;;;4.90;3.22;;;10.50;99.90;;;;;;4144557;28;20073;-70
2022/12/26 06:27:25;;;;;;;5.43;3.40;;;10.50;99.90;;;;;;4145493;28;20354;-70
2022/12/26 06:29:26;;;;;;;4.18;3.22;;;10.50;99.90;;;;;;4147742;28;20030;-70
2022/12/26 06:31:26;;;;;;;4.50;3.45;;;10.50;99.90;;;;;;4142705;28;20512;-69
2022/12/26 06:33:27;;;;;;;3.83;3.00;;;10.50;99.90;;;;;;4143419;28;21109;-69
2022/12/26 06:35:27;;;;;;;6.85;3.22;;;10.50;99.90;;;;;;4142790;28;20049;-70
2022/12/26 06:37:29;;;;;;;4.55;3.50;;;10.50;99.90;;;;;;4140298;28;20479;-69
2022/12/26 06:39:30;;;;;;;4.95;3.40;;;10.50;99.90;;;;;;4141039;28;20044;-70
2022/12/26 06:41:31;;;;;;;4.68;3.40;;;10.40;99.90;;;;;;4143741;28;20034;-69
2022/12/26 06:43:31;;;;;;;4.35;3.00;;;10.40;99.90;;;;;;4144286;28;20034;-70
2022/12/26 06:45:32;;;;;;;3.95;3.10;;;10.50;99.90;;;;;;4150145;28;20484;-69
2022/12/26 06:47:33;;;;;;;4.82;3.08;;;10.50;99.90;;;;;;4147028;28;20113;-69
2022/12/26 06:49:33;;;;;;;3.63;3.08;;;10.40;99.90;;;;;;4141416;28;20038;-69
2022/12/26 06:51:34;;;;;;;3.67;3.10;;;10.50;99.90;;;;;;4144811;28;20154;-69
2022/12/26 06:53:35;;;;;;;3.47;2.80;;;10.50;99.90;;;;;;4142152;28;20038;-69
2022/12/26 06:55:35;;;;;;;5.47;3.15;;;10.50;99.90;;;;;;4146342;28;20049;-70
2022/12/26 06:57:36;;;;;;;4.47;2.80;;;10.50;99.90;;;;;;4141748;28;20049;-70
2022/12/26 06:59:36;;;;;;;4.70;3.33;;;10.50;99.90;;;;;;4144541;28;20022;-70
2022/12/26 07:01:37;;;;;;;4.70;3.10;;;10.50;99.90;;;;;;4136404;28;20482;-69
2022/12/26 07:03:38;;;;;;;4.03;2.95;;;10.50;99.90;;;;;;4143789;28;20046;-71
2022/12/26 07:05:39;;;;;;;3.97;2.92;;;10.50;99.90;;;;;;4141002;28;20045;-71
2022/12/26 07:07:39;;;;;;;2.97;2.47;;;10.50;99.90;;;;;;4140032;28;20034;-70
2022/12/26 07:09:40;;;;;;;3.95;3.05;;;10.50;99.90;;;;;;4142756;28;20037;-71
2022/12/26 07:11:44;;;;;;;4.78;2.88;;;10.50;99.90;;;;;;4143569;28;20064;-71
2022/12/26 07:13:45;;;;;;;5.80;3.13;;;10.50;99.90;;;;;;4144249;28;20378;-72
2022/12/26 07:15:45;;;;;;;7.22;3.15;;;10.50;99.90;;;;;;4136181;28;20068;-72
2022/12/26 07:17:46;;;;;;;3.67;2.65;;;10.50;99.90;;;;;;4141505;28;20054;-72
2022/12/26 07:19:47;;;;;;;2.28;2.08;;;10.50;99.90;;;;;;4136739;28;20127;-71
2022/12/26 07:21:47;;;;;;;3.55;2.80;;;10.50;99.90;;;;;;4137083;28;20027;-72
2022/12/26 07:23:48;;;;;;;5.20;3.00;;;10.50;99.90;;;;;;4133945;28;20107;-73
2022/12/26 07:25:49;;;;;;;3.72;2.60;;;10.50;99.90;;;;;;4134749;28;20044;-72
2022/12/26 07:27:53;;;;;;;5.28;2.78;;;10.50;99.90;;;;;;4143367;28;20121;-72
2022/12/26 07:29:53;;;;;;;5.53;2.88;;;10.50;99.90;;;;;;4135482;28;20513;-72
2022/12/26 07:31:55;;;;;;;3.00;2.33;;;10.50;99.90;;;;;;4136805;28;20034;-72
2022/12/26 07:33:55;;;;;;;4.63;2.67;;;10.50;99.90;;;;;;4136850;28;20128;-72
2022/12/26 07:36:00;;;;;;;3.75;2.53;;;10.50;99.90;;;;;;4137576;28;20083;-73
2022/12/26 07:38:01;;;;;;;3.88;2.28;;;10.50;99.90;;;;;;4142795;28;20036;-72
2022/12/26 07:40:02;;;;;;;3.10;2.30;;;10.60;99.90;;;;;;4139089;28;20061;-72
2022/12/26 07:42:04;;;;;;;3.40;2.40;;;10.60;99.90;;;;;;4138348;28;20050;-72
2022/12/26 07:44:05;;;;;;;2.47;1.92;;;10.60;99.90;;;;;;4135932;28;20061;-72
2022/12/26 07:46:05;;;;;;;2.80;2.03;;;10.60;99.90;;;;;;4141144;28;20029;-72
2022/12/26 07:48:06;;;;;;;2.80;1.98;;;10.60;99.90;;;;;;4144077;28;20026;-72
2022/12/26 07:50:07;;;;;;;3.78;1.77;;;10.60;99.90;;;;;;4140178;28;20405;-74
2022/12/26 07:52:08;;;;;;;5.18;2.03;;;10.60;99.90;;;;;;4141960;28;20034;-73
2022/12/26 07:54:08;;;;;;;1.95;1.52;;;10.60;99.90;;;;;;4142183;28;20145;-71
2022/12/26 07:56:09;;;;;;;4.00;1.42;;;10.60;99.90;;;;;;4140235;28;20373;-72
2022/12/26 07:58:10;;;;;;;1.70;1.40;;;10.60;99.90;;;;;;4136036;28;20441;-72
2022/12/26 08:00:11;;;;;;;2.28;1.55;;;10.60;99.90;;;;;;4137026;28;20120;-71
2022/12/26 08:02:11;;;;;;;1.70;1.35;;;10.70;99.90;;;;;;4138038;28;20577;-72
2022/12/26 08:04:13;;;;;;;2.08;1.55;;;10.60;99.90;;;;;;4139227;28;20343;-72
2022/12/26 08:06:13;;;;;;;1.95;1.50;;;10.70;99.90;;;;;;4143307;28;20088;-72
2022/12/26 08:08:15;;;;;;;3.40;1.80;;;10.70;99.90;;;;;;4142577;28;20030;-72
2022/12/26 08:10:16;;;;;;;3.20;1.40;;;10.70;99.90;;;;;;4138667;28;20484;-72
2022/12/26 08:12:20;;;;;;;2.75;1.60;;;10.70;99.90;;;;;;4141428;28;20324;-72
2022/12/26 08:14:21;;;;;;;2.97;1.30;;;10.70;99.90;;;;;;4141734;28;20026;-72
2022/12/26 08:16:21;;;;;;;2.97;1.50;;;10.70;99.90;;;;;;4141757;28;20111;-72
2022/12/26 08:18:22;;;;;;;3.28;1.40;;;10.70;99.90;;;;;;4141346;28;20568;-72
2022/12/26 08:20:23;;;;;;;2.63;1.52;;;10.70;99.90;;;;;;4141741;28;20042;-72
2022/12/26 08:22:23;;;;;;;2.20;1.48;;;10.70;99.90;;;;;;4142183;28;20033;-72
2022/12/26 08:24:24;;;;;;;2.28;1.65;;;10.70;99.90;;;;;;4141581;28;20046;-72
2022/12/26 08:26:25;;;;;;;3.58;1.52;;;10.70;99.90;;;;;;4138075;28;20240;-72
2022/12/26 08:28:25;;;;;;;2.08;1.40;;;10.70;99.90;;;;;;4139955;28;20073;-72
2022/12/26 08:30:26;;;;;;;2.35;1.40;;;10.70;99.90;;;;;;4140341;28;20168;-72
2022/12/26 08:32:26;;;;;;;1.42;1.20;;;10.80;99.90;;;;;;4140044;28;20293;-72
2022/12/26 08:34:34;;;;;;;2.20;1.20;;;10.80;99.90;;;;;;4141699;28;20045;-73
2022/12/26 08:36:35;;;;;;;1.77;1.38;;;10.80;99.90;;;;;;4140828;28;20030;-73
2022/12/26 08:38:36;;;;;;;2.58;1.40;;;10.80;99.90;;;;;;4141906;28;20064;-72
2022/12/26 08:40:37;;;;;;;2.03;1.45;;;10.80;99.90;;;;;;4141351;28;20057;-72
2022/12/26 08:42:37;;;;;;;2.05;1.08;;;10.80;99.90;;;;;;4136221;28;20041;-72
2022/12/26 08:44:38;;;;;;;3.30;1.50;;;10.70;99.90;;;;;;4138696;28;20105;-72
2022/12/26 08:46:38;;;;;;;2.72;1.30;;;10.80;99.90;;;;;;4139692;28;20041;-72
2022/12/26 08:48:40;;;;;;;2.55;1.50;;;10.80;99.90;;;;;;4136205;28;20045;-72
2022/12/26 08:50:40;;;;;;;5.13;1.50;;;10.80;99.90;;;;;;4134231;28;20039;-72
2022/12/26 08:52:41;;;;;;;4.57;1.63;;;10.80;99.90;;;;;;4137666;28;20026;-70
2022/12/26 08:54:42;;;;;;;4.95;1.60;;;10.80;99.90;;;;;;4139705;28;20033;-71
2022/12/26 08:56:42;;;;;;;1.88;1.00;;;10.70;99.90;;;;;;4136744;28;20394;-72
2022/12/26 08:58:44;;;;;;;1.92;1.17;;;10.70;99.90;;;;;;4140054;28;20389;-71
2022/12/26 09:00:44;;;;;;;2.38;1.20;;;10.80;99.90;;;;;;4134580;28;20030;-72
2022/12/26 09:02:46;;;;;;;3.30;1.30;;;10.80;99.90;;;;;;4145127;28;20060;-72
2022/12/26 09:04:47;;;;;;;2.08;1.08;;;10.80;99.90;;;;;;4144858;28;20040;-72
2022/12/26 09:06:48;;;;;;;2.67;1.20;;;10.80;99.90;;;;;;4143114;28;20034;-72
2022/12/26 09:08:49;;;;;;;3.28;1.00;;;10.80;99.90;;;;;;4145742;28;20528;-73
2022/12/26 09:10:49;;;;;;;4.70;1.27;;;10.80;99.90;;;;;;4142497;28;20056;-72
2022/12/26 09:12:50;;;;;;;1.48;0.93;;;10.80;99.90;;;;;;4143829;28;20045;-72
2022/12/26 09:14:50;;;;;;;4.00;1.05;;;10.80;99.90;;;;;;4137874;28;20034;-72
2022/12/26 09:16:53;;;;;;;3.70;0.80;;;10.80;99.90;;;;;;4141474;28;20469;-72
2022/12/26 09:18:55;;;;;;;3.17;0.90;;;10.80;99.90;;;;;;4144174;28;20030;-72
2022/12/26 09:20:59;;;;;;;2.75;0.93;;;10.80;99.90;;;;;;4137989;28;20030;-72
2022/12/26 09:23:00;;;;;;;0.98;0.70;;;10.80;99.90;;;;;;4143183;28;20060;-72
2022/12/26 09:25:00;;;;;;;3.15;1.30;;;10.80;99.90;;;;;;4144893;28;22311;-72
2022/12/26 09:27:01;;;;;;;0.98;0.70;;;10.80;99.90;;;;;;4145086;28;20053;-72
2022/12/26 09:29:02;;;;;;;1.38;0.68;;;10.80;99.90;;;;;;4142348;28;20543;-72
2022/12/26 09:31:07;;;;;;;1.30;0.85;;;10.80;99.90;;;;;;4137122;28;20040;-72
2022/12/26 09:33:07;;;;;;;1.48;1.00;;;10.80;99.90;;;;;;4138714;28;20463;-72
2022/12/26 09:35:08;;;;;;;2.92;0.95;;;10.80;99.90;;;;;;4142555;28;20026;-72
2022/12/26 09:37:08;;;;;;;3.60;1.17;;;10.80;99.90;;;;;;4146577;28;20037;-72
2022/12/26 09:39:10;;;;;;;2.60;0.93;;;10.80;99.90;;;;;;4144312;28;20084;-72
2022/12/26 09:41:24;;;;;;;4.63;0.95;;;10.90;99.90;;;;;;4145494;28;20540;-72
2022/12/26 09:44:05;;;;;;;3.63;1.08;;;10.90;99.90;;;;;;4138924;28;20112;-73
2022/12/26 09:46:20;;;;;;;2.05;0.80;;;10.90;99.90;;;;;;4104072;28;20036;-72
2022/12/26 09:48:27;;;;;;;5.03;0.93;;;11.00;99.90;;;;;;4148659;28;20048;-72
2022/12/26 09:50:34;;;;;;;2.75;0.82;;;11.00;99.90;;;;;;4143622;28;20125;-73
2022/12/26 09:52:41;;;;;;;1.63;0.60;;;11.00;99.90;;;;;;4145234;28;20046;-72
2022/12/26 09:54:49;;;;;;;1.85;0.80;;;11.10;99.90;;;;;;4140217;28;20053;-72
2022/12/26 09:56:51;;;;;;;2.08;0.80;;;11.10;99.90;;;;;;4145187;28;20565;-73
2022/12/26 09:58:59;;;;;;;3.15;0.60;;;11.20;99.90;;;;;;4141543;28;20034;-73
2022/12/26 10:01:14;;;;;;;2.28;0.70;;;11.20;99.90;;;;;;4139828;28;20053;-73
2022/12/26 10:03:15;;;;;;;2.58;0.90;;;11.30;99.90;;;;;;4142619;28;20038;-72
2022/12/26 10:05:16;;;;;;;1.85;0.90;;;11.30;99.90;;;;;;4143512;28;20092;-73
2022/12/26 10:07:43;;;;;;;2.22;0.90;;;11.30;99.90;;;;;;4147059;28;20030;-73
2022/12/26 10:09:54;;;;;;;4.50;1.02;;;11.40;99.90;;;;;;4143092;28;21618;-72
2022/12/26 10:12:02;;;;;;;3.95;1.00;;;11.40;99.90;;;;;;4142612;28;20142;-73
2022/12/26 10:14:33;;;;;;;2.83;0.88;;;11.40;99.90;;;;;;4143460;28;20037;-73
2022/12/26 10:16:37;;;;;;;1.58;0.63;;;11.40;99.90;;;;;;4142364;28;20034;-73
2022/12/26 10:18:49;;;;;;;2.95;0.80;;;11.40;99.90;;;;;;4139551;28;20038;-73
2022/12/26 10:20:52;;;;;;;4.33;0.90;;;11.40;99.90;;;;;;4131587;28;20496;-73
2022/12/26 10:23:20;;;;;;;2.63;0.90;;;11.40;99.90;;;;;;4142795;28;20640;-73
2022/12/26 10:25:27;;;;;;;1.67;0.60;;;11.40;99.90;;;;;;4152408;28;20037;-73
2022/12/26 10:27:35;;;;;;;3.17;0.95;;;11.50;99.90;;;;;;4144652;28;20439;-73
2022/12/26 10:29:41;;;;;;;1.77;0.63;;;11.50;99.90;;;;;;4144129;28;20048;-74
2022/12/26 10:32:11;;;;;;;2.90;0.98;;;11.50;99.90;;;;;;4141727;28;20046;-72
2022/12/26 10:34:14;;;;;;;2.85;1.33;;;11.40;99.90;;;;;;4140093;28;20033;-71
2022/12/26 10:36:29;;;;;;;2.53;1.02;;;11.40;99.90;;;;;;4144977;28;20164;-72
2022/12/26 10:38:38;;;;;;;4.78;1.20;;;11.40;99.90;;;;;;4140572;28;20038;-73
2022/12/26 10:40:43;;;;;;;1.77;0.85;;;11.40;99.90;;;;;;4141542;28;20100;-73
2022/12/26 10:42:47;;;;;;;7.28;1.30;;;11.40;99.90;;;;;;4136812;28;20037;-74
2022/12/26 10:44:47;;;;;;;2.08;0.60;;;11.40;99.90;;;;;;4136351;28;20046;-73
2022/12/26 10:46:57;;;;;;;5.05;1.20;;;11.40;99.90;;;;;;4141584;28;20444;-73
2022/12/26 10:48:58;;;;;;;3.00;0.80;;;11.40;99.90;;;;;;4145784;28;20184;-73
2022/12/26 10:50:59;;;;;;;4.53;1.05;;;11.50;99.90;;;;;;4142330;28;20037;-74
2022/12/26 10:53:04;;;;;;;2.10;0.70;;;11.40;99.90;;;;;;4144039;28;20619;-74
2022/12/26 10:55:05;;;;;;;1.77;0.90;;;11.40;99.90;;;;;;4142981;28;20485;-72
2022/12/26 10:57:07;;;;;;;3.15;0.98;;;11.50;99.90;;;;;;4140280;28;20037;-73
2022/12/26 10:59:13;;;;;;;2.17;0.63;;;11.50;99.90;;;;;;4143465;28;20037;-73
2022/12/26 11:01:36;;;;;;;4.32;0.90;;;11.50;99.90;;;;;;4140813;28;20030;-73
2022/12/26 11:03:53;;;;;;;4.32;1.17;;;11.50;99.90;;;;;;4144783;28;20045;-73
2022/12/26 11:05:58;;;;;;;7.03;1.15;;;11.50;99.90;;;;;;4144167;28;20034;-74
2022/12/26 11:08:27;;;;;;;3.00;0.98;;;11.50;99.90;;;;;;4144710;28;20026;-73
2022/12/26 11:10:28;;;;;;;8.90;0.93;;;11.50;99.90;;;;;;4141158;28;20445;-74
2022/12/26 11:12:50;;;;;;;1.92;0.60;;;11.50;99.90;;;;;;4143744;28;20049;-73
2022/12/26 11:14:57;;;;;;;1.60;0.60;;;11.50;99.90;;;;;;4143926;28;20117;-73
2022/12/26 11:17:03;;;;;;;2.78;0.73;;;11.50;99.90;;;;;;4143752;28;20052;-73
2022/12/26 11:19:04;;;;;;;3.92;0.90;;;11.50;99.90;;;;;;4144399;28;20048;-73
2022/12/26 11:21:32;;;;;;;2.10;0.63;;;11.40;99.90;;;;;;4140975;28;20179;-73
2022/12/26 11:23:32;;;;;;;6.53;1.25;;;11.40;99.90;;;;;;4137227;28;20068;-74
2022/12/26 11:25:35;;;;;;;4.78;0.88;;;11.40;99.90;;;;;;4143830;28;20045;-73
2022/12/26 11:27:48;;;;;;;3.85;1.02;;;11.40;99.90;;;;;;4139801;28;20046;-74
2022/12/26 11:29:49;;;;;;;3.88;1.08;;;11.40;99.90;;;;;;4140503;28;20034;-74
2022/12/26 11:31:55;;;;;;;4.13;1.02;;;11.40;99.90;;;;;;4131137;28;20038;-73
2022/12/26 11:33:55;;;;;;;4.03;1.00;;;11.30;99.90;;;;;;4135931;28;20080;-73
2022/12/26 11:36:14;;;;;;;6.20;0.80;;;11.30;99.90;;;;;;4136551;28;20041;-74
2022/12/26 11:38:33;;;;;;;2.60;0.80;;;11.30;99.90;;;;;;4136817;28;20025;-73
2022/12/26 11:40:37;;;;;;;4.95;0.80;;;11.30;99.90;;;;;;4136710;28;20417;-73
2022/12/26 11:42:38;;;;;;;4.70;1.38;;;11.30;99.90;;;;;;4141197;28;20034;-74
2022/12/26 11:44:44;;;;;;;3.58;1.10;;;11.30;99.90;;;;;;4135281;28;20389;-74
2022/12/26 11:46:58;;;;;;;3.20;0.70;;;11.40;99.90;;;;;;4133933;28;20526;-72
2022/12/26 11:48:59;;;;;;;4.45;0.93;;;11.50;99.90;;;;;;4137944;28;20041;-74
2022/12/26 11:51:00;;;;;;;4.80;1.02;;;11.50;99.90;;;;;;4139957;28;20072;-74
2022/12/26 11:53:01;;;;;;;5.93;1.10;;;11.60;99.90;;;;;;4129646;28;20481;-74
2022/12/26 11:55:21;;;;;;;4.55;1.00;;;11.70;99.90;;;;;;4126085;28;20169;-74
2022/12/26 11:57:28;;;;;;;2.33;1.05;;;11.70;99.90;;;;;;4131990;28;20041;-74
2022/12/26 11:59:28;;;;;;;4.82;1.10;;;11.80;99.90;;;;;;4140678;28;20041;-74
2022/12/26 12:01:29;;;;;;;2.75;0.75;;;11.90;99.90;;;;;;4139869;28;20045;-74
2022/12/26 12:03:46;;;;;;;3.55;0.98;;;11.90;99.90;;;;;;4144477;28;20034;-74
2022/12/26 12:06:08;;;;;;;5.60;0.98;;;12.00;99.90;;;;;;4138483;28;20100;-75
2022/12/26 12:08:20;;;;;;;3.70;1.17;;;12.00;99.90;;;;;;4142622;28;20033;-74
2022/12/26 12:10:53;;;;;;;6.20;1.20;;;12.00;99.90;;;;;;4137050;28;20405;-74
2022/12/26 12:13:29;;;;;;;4.63;1.10;;;11.90;99.90;;;;;;4144323;28;20066;-74
2022/12/26 12:15:50;;;;;;;5.40;1.25;;;11.70;99.90;;;;;;4135673;28;20030;-73
2022/12/26 12:18:05;;;;;;;2.65;0.80;;;11.40;99.90;;;;;;4144362;28;20037;-73
2022/12/26 12:20:23;;;;;;;3.13;0.82;;;11.20;99.90;;;;;;4141833;28;20034;-73
2022/12/26 12:22:24;;;;;;;4.22;0.82;;;10.90;99.90;;;;;;4141635;28;20046;-73
2022/12/26 12:24:30;;;;;;;3.92;0.90;;;10.80;99.90;;;;;;4143305;28;20041;-72
2022/12/26 12:26:38;;;;;;;4.68;1.02;;;10.70;99.90;;;;;;4147859;28;20032;-72
2022/12/26 12:29:03;;;;;;;2.05;0.90;;;10.60;99.90;;;;;;4147160;28;20512;-72
2022/12/26 12:31:16;;;;;;;5.32;1.00;;;10.60;99.90;;;;;;4138685;28;20788;-72
2022/12/26 12:33:32;;;;;;;2.88;0.95;;;10.50;99.90;;;;;;4139032;28;20529;-72
2022/12/26 12:36:06;;;;;;;3.15;1.02;;;10.50;99.90;;;;;;4141910;28;20048;-72
2022/12/26 12:38:16;;;;;;;;;;;10.40;99.90;;;;;;4141143;28;20053;-73
2022/12/26 12:40:20;;;;;;;3.95;1.08;;;10.40;99.90;;;;;;4132594;28;20374;-73
2022/12/26 12:42:42;;;;;;;5.93;1.50;;;10.40;99.90;;;;;;4140909;28;20034;-73
2022/12/26 12:45:25;;;;;;;3.55;1.10;;;10.40;99.90;;;;;;4145677;28;20068;-73
2022/12/26 12:47:47;;;;;;;2.90;1.02;;;10.40;99.90;;;;;;4144603;28;20022;-72
2022/12/26 12:50:15;;;;;;;3.25;1.30;;;10.40;99.90;;;;;;4135279;28;20034;-72
2022/12/26 12:52:57;;;;;;;7.70;1.50;;;10.30;99.90;;;;;;4144207;28;20034;-72
2022/12/26 12:55:27;;;;;;;9.05;1.42;;;10.20;99.90;;;;;;4143378;28;20124;-73
2022/12/26 12:57:37;;;;;;;3.67;1.17;;;10.20;99.90;;;;;;4142044;28;20095;-73
2022/12/26 12:59:54;;;;;;;4.00;1.23;;;10.00;99.90;;;;;;4141161;28;20084;-73
2022/12/26 13:01:59;;;;;;;6.93;1.60;;;10.10;99.90;;;;;;4128652;28;20061;-73